sensor_id;sensor_type;location;lat;lon;timestamp;P1;durP1;ratioP1;P2;durP2;ratioP2
56653;SDS011;45096;52.302;4.634;2023-09-30T00:02:12;3.25;;;2.55;;
56653;SDS011;45096;52.302;4.634;2023-09-30T00:04:38;3.78;;;2.42;;
56653;SDS011;45096;52.302;4.634;2023-09-30T00:07:04;4.07;;;2.53;;
56653;SDS011;45096;52.302;4.634;2023-09-30T00:09:30;5.22;;;2.55;;
56653;SDS011;45096;52.302;4.634;2023-09-30T00:11:56;2.90;;;2.63;;
56653;SDS011;45096;52.302;4.634;2023-09-30T00:14:21;2.95;;;2.65;;
56653;SDS011;45096;52.302;4.634;2023-09-30T00:16:46;2.58;;;2.15;;
56653;SDS011;45096;52.302;4.634;2023-09-30T00:19:12;3.22;;;2.72;;
56653;SDS011;45096;52.302;4.634;2023-09-30T00:21:37;3.50;;;2.53;;
56653;SDS011;45096;52.302;4.634;2023-09-30T00:24:04;3.33;;;2.70;;
56653;SDS011;45096;52.302;4.634;2023-09-30T00:26:30;4.88;;;2.80;;
56653;SDS011;45096;52.302;4.634;2023-09-30T00:28:55;6.65;;;2.90;;
56653;SDS011;45096;52.302;4.634;2023-09-30T00:31:21;2.83;;;2.42;;
56653;SDS011;45096;52.302;4.634;2023-09-30T00:33:46;3.33;;;2.17;;
56653;SDS011;45096;52.302;4.634;2023-09-30T00:36:12;4.88;;;3.00;;
56653;SDS011;45096;52.302;4.634;2023-09-30T00:38:37;2.70;;;2.47;;
56653;SDS011;45096;52.302;4.634;2023-09-30T00:41:04;4.30;;;2.90;;
56653;SDS011;45096;52.302;4.634;2023-09-30T00:43:29;7.43;;;3.20;;
56653;SDS011;45096;52.302;4.634;2023-09-30T00:45:57;2.47;;;2.28;;
56653;SDS011;45096;52.302;4.634;2023-09-30T00:48:29;3.17;;;2.88;;
56653;SDS011;45096;52.302;4.634;2023-09-30T00:50:55;3.65;;;2.58;;
56653;SDS011;45096;52.302;4.634;2023-09-30T00:53:20;3.67;;;2.33;;
56653;SDS011;45096;52.302;4.634;2023-09-30T00:55:46;4.93;;;2.80;;
56653;SDS011;45096;52.302;4.634;2023-09-30T00:58:12;3.75;;;2.20;;
56653;SDS011;45096;52.302;4.634;2023-09-30T01:00:38;2.75;;;2.55;;
56653;SDS011;45096;52.302;4.634;2023-09-30T01:03:04;3.25;;;2.60;;
56653;SDS011;45096;52.302;4.634;2023-09-30T01:05:29;3.38;;;2.67;;
56653;SDS011;45096;52.302;4.634;2023-09-30T01:07:55;5.45;;;3.20;;
56653;SDS011;45096;52.302;4.634;2023-09-30T01:10:20;4.47;;;3.08;;
56653;SDS011;45096;52.302;4.634;2023-09-30T01:12:46;3.03;;;2.80;;
56653;SDS011;45096;52.302;4.634;2023-09-30T01:15:13;3.45;;;2.65;;
56653;SDS011;45096;52.302;4.634;2023-09-30T01:17:38;5.82;;;2.88;;
56653;SDS011;45096;52.302;4.634;2023-09-30T01:20:04;4.82;;;2.63;;
56653;SDS011;45096;52.302;4.634;2023-09-30T01:22:32;3.55;;;2.83;;
56653;SDS011;45096;52.302;4.634;2023-09-30T01:24:57;4.20;;;2.95;;
56653;SDS011;45096;52.302;4.634;2023-09-30T01:27:23;2.55;;;2.33;;
56653;SDS011;45096;52.302;4.634;2023-09-30T01:29:48;3.75;;;3.15;;
56653;SDS011;45096;52.302;4.634;2023-09-30T01:32:14;4.32;;;2.90;;
56653;SDS011;45096;52.302;4.634;2023-09-30T01:34:39;4.90;;;2.78;;
56653;SDS011;45096;52.302;4.634;2023-09-30T01:37:06;3.90;;;3.20;;
56653;SDS011;45096;52.302;4.634;2023-09-30T01:39:33;5.32;;;3.17;;
56653;SDS011;45096;52.302;4.634;2023-09-30T01:41:58;3.22;;;2.92;;
56653;SDS011;45096;52.302;4.634;2023-09-30T01:44:23;4.93;;;2.83;;
56653;SDS011;45096;52.302;4.634;2023-09-30T01:46:49;6.45;;;3.15;;
56653;SDS011;45096;52.302;4.634;2023-09-30T01:49:14;4.80;;;3.45;;
56653;SDS011;45096;52.302;4.634;2023-09-30T01:51:40;4.25;;;3.08;;
56653;SDS011;45096;52.302;4.634;2023-09-30T01:54:05;3.45;;;2.63;;
56653;SDS011;45096;52.302;4.634;2023-09-30T01:56:32;5.50;;;2.95;;
56653;SDS011;45096;52.302;4.634;2023-09-30T01:58:58;2.55;;;2.30;;
56653;SDS011;45096;52.302;4.634;2023-09-30T02:01:24;4.97;;;3.00;;
56653;SDS011;45096;52.302;4.634;2023-09-30T02:03:49;3.65;;;2.92;;
56653;SDS011;45096;52.302;4.634;2023-09-30T02:06:15;5.18;;;3.42;;
56653;SDS011;45096;52.302;4.634;2023-09-30T02:08:40;3.72;;;2.95;;
56653;SDS011;45096;52.302;4.634;2023-09-30T02:11:05;3.28;;;2.95;;
56653;SDS011;45096;52.302;4.634;2023-09-30T02:13:32;3.70;;;2.85;;
56653;SDS011;45096;52.302;4.634;2023-09-30T02:15:58;6.15;;;3.53;;
56653;SDS011;45096;52.302;4.634;2023-09-30T02:18:23;5.07;;;2.90;;
56653;SDS011;45096;52.302;4.634;2023-09-30T02:20:49;4.35;;;2.88;;
56653;SDS011;45096;52.302;4.634;2023-09-30T02:23:14;3.45;;;3.15;;
56653;SDS011;45096;52.302;4.634;2023-09-30T02:25:39;4.65;;;2.83;;
56653;SDS011;45096;52.302;4.634;2023-09-30T02:28:05;3.70;;;2.80;;
56653;SDS011;45096;52.302;4.634;2023-09-30T02:30:32;3.35;;;3.05;;
56653;SDS011;45096;52.302;4.634;2023-09-30T02:32:58;4.28;;;3.03;;
56653;SDS011;45096;52.302;4.634;2023-09-30T02:35:23;3.65;;;3.10;;
56653;SDS011;45096;52.302;4.634;2023-09-30T02:37:49;4.50;;;2.85;;
56653;SDS011;45096;52.302;4.634;2023-09-30T02:40:14;5.25;;;3.42;;
56653;SDS011;45096;52.302;4.634;2023-09-30T02:42:40;6.45;;;3.22;;
56653;SDS011;45096;52.302;4.634;2023-09-30T02:45:06;3.28;;;2.70;;
56653;SDS011;45096;52.302;4.634;2023-09-30T02:47:34;6.03;;;3.45;;
56653;SDS011;45096;52.302;4.634;2023-09-30T02:49:59;5.07;;;2.95;;
56653;SDS011;45096;52.302;4.634;2023-09-30T02:52:25;5.45;;;3.70;;
56653;SDS011;45096;52.302;4.634;2023-09-30T02:54:50;4.60;;;3.38;;
56653;SDS011;45096;52.302;4.634;2023-09-30T02:57:16;4.85;;;2.97;;
56653;SDS011;45096;52.302;4.634;2023-09-30T02:59:41;3.53;;;2.97;;
56653;SDS011;45096;52.302;4.634;2023-09-30T03:02:07;6.93;;;2.90;;
56653;SDS011;45096;52.302;4.634;2023-09-30T03:04:33;3.42;;;2.85;;
56653;SDS011;45096;52.302;4.634;2023-09-30T03:06:59;3.83;;;3.45;;
56653;SDS011;45096;52.302;4.634;2023-09-30T03:09:24;4.95;;;3.25;;
56653;SDS011;45096;52.302;4.634;2023-09-30T03:11:50;4.20;;;2.97;;
56653;SDS011;45096;52.302;4.634;2023-09-30T03:14:15;4.50;;;2.70;;
56653;SDS011;45096;52.302;4.634;2023-09-30T03:16:40;4.38;;;3.15;;
56653;SDS011;45096;52.302;4.634;2023-09-30T03:19:06;4.13;;;2.70;;
56653;SDS011;45096;52.302;4.634;2023-09-30T03:21:33;6.22;;;3.00;;
56653;SDS011;45096;52.302;4.634;2023-09-30T03:23:59;3.22;;;2.92;;
56653;SDS011;45096;52.302;4.634;2023-09-30T03:26:24;3.75;;;3.22;;
56653;SDS011;45096;52.302;4.634;2023-09-30T03:28:50;4.32;;;3.33;;
56653;SDS011;45096;52.302;4.634;2023-09-30T03:31:19;5.20;;;3.70;;
56653;SDS011;45096;52.302;4.634;2023-09-30T03:33:44;4.57;;;3.25;;
56653;SDS011;45096;52.302;4.634;2023-09-30T03:36:09;3.40;;;3.10;;
56653;SDS011;45096;52.302;4.634;2023-09-30T03:38:36;4.95;;;3.90;;
56653;SDS011;45096;52.302;4.634;2023-09-30T03:41:02;5.18;;;4.47;;
56653;SDS011;45096;52.302;4.634;2023-09-30T03:43:27;10.02;;;4.88;;
56653;SDS011;45096;52.302;4.634;2023-09-30T03:45:52;7.78;;;4.75;;
56653;SDS011;45096;52.302;4.634;2023-09-30T03:48:18;9.07;;;5.25;;
56653;SDS011;45096;52.302;4.634;2023-09-30T03:50:43;5.75;;;4.07;;
56653;SDS011;45096;52.302;4.634;2023-09-30T03:53:09;6.95;;;4.68;;
56653;SDS011;45096;52.302;4.634;2023-09-30T03:55:36;11.40;;;4.85;;
56653;SDS011;45096;52.302;4.634;2023-09-30T03:58:02;4.15;;;3.75;;
56653;SDS011;45096;52.302;4.634;2023-09-30T04:00:27;4.05;;;3.67;;
56653;SDS011;45096;52.302;4.634;2023-09-30T04:02:53;6.68;;;3.50;;
56653;SDS011;45096;52.302;4.634;2023-09-30T04:05:18;5.60;;;3.72;;
56653;SDS011;45096;52.302;4.634;2023-09-30T04:07:44;6.22;;;4.00;;
56653;SDS011;45096;52.302;4.634;2023-09-30T04:10:09;5.07;;;3.00;;
56653;SDS011;45096;52.302;4.634;2023-09-30T04:12:36;6.90;;;4.22;;
56653;SDS011;45096;52.302;4.634;2023-09-30T04:15:02;5.20;;;3.65;;
56653;SDS011;45096;52.302;4.634;2023-09-30T04:17:27;7.13;;;3.10;;
56653;SDS011;45096;52.302;4.634;2023-09-30T04:19:53;3.83;;;3.20;;
56653;SDS011;45096;52.302;4.634;2023-09-30T04:22:18;4.43;;;3.47;;
56653;SDS011;45096;52.302;4.634;2023-09-30T04:24:44;4.45;;;3.28;;
56653;SDS011;45096;52.302;4.634;2023-09-30T04:27:09;4.13;;;3.38;;
56653;SDS011;45096;52.302;4.634;2023-09-30T04:29:36;4.35;;;3.28;;
56653;SDS011;45096;52.302;4.634;2023-09-30T04:32:01;4.55;;;3.08;;
56653;SDS011;45096;52.302;4.634;2023-09-30T04:34:27;3.72;;;2.90;;
56653;SDS011;45096;52.302;4.634;2023-09-30T04:36:52;6.03;;;3.85;;
56653;SDS011;45096;52.302;4.634;2023-09-30T04:39:18;5.60;;;3.60;;
56653;SDS011;45096;52.302;4.634;2023-09-30T04:41:43;5.38;;;3.35;;
56653;SDS011;45096;52.302;4.634;2023-09-30T04:44:09;4.93;;;3.50;;
56653;SDS011;45096;52.302;4.634;2023-09-30T04:46:35;3.80;;;3.00;;
56653;SDS011;45096;52.302;4.634;2023-09-30T04:49:01;6.25;;;4.05;;
56653;SDS011;45096;52.302;4.634;2023-09-30T04:51:26;5.07;;;3.40;;
56653;SDS011;45096;52.302;4.634;2023-09-30T04:53:52;4.30;;;3.63;;
56653;SDS011;45096;52.302;4.634;2023-09-30T04:56:17;4.43;;;2.72;;
56653;SDS011;45096;52.302;4.634;2023-09-30T04:58:43;3.70;;;3.35;;
56653;SDS011;45096;52.302;4.634;2023-09-30T05:01:08;4.82;;;4.32;;
56653;SDS011;45096;52.302;4.634;2023-09-30T05:03:35;5.55;;;3.45;;
56653;SDS011;45096;52.302;4.634;2023-09-30T05:06:00;4.38;;;3.55;;
56653;SDS011;45096;52.302;4.634;2023-09-30T05:08:26;3.45;;;3.15;;
56653;SDS011;45096;52.302;4.634;2023-09-30T05:10:51;5.93;;;4.65;;
56653;SDS011;45096;52.302;4.634;2023-09-30T05:13:16;3.30;;;3.00;;
56653;SDS011;45096;52.302;4.634;2023-09-30T05:15:42;5.18;;;2.97;;
56653;SDS011;45096;52.302;4.634;2023-09-30T05:18:07;3.42;;;3.00;;
56653;SDS011;45096;52.302;4.634;2023-09-30T05:20:34;3.45;;;2.80;;
56653;SDS011;45096;52.302;4.634;2023-09-30T05:23:00;5.20;;;3.25;;
56653;SDS011;45096;52.302;4.634;2023-09-30T05:25:25;8.75;;;4.60;;
56653;SDS011;45096;52.302;4.634;2023-09-30T05:27:51;4.38;;;3.90;;
56653;SDS011;45096;52.302;4.634;2023-09-30T05:30:16;4.20;;;3.72;;
56653;SDS011;45096;52.302;4.634;2023-09-30T05:32:41;3.42;;;2.95;;
56653;SDS011;45096;52.302;4.634;2023-09-30T05:35:07;10.50;;;6.75;;
56653;SDS011;45096;52.302;4.634;2023-09-30T05:37:34;21.70;;;14.35;;
56653;SDS011;45096;52.302;4.634;2023-09-30T05:40:00;17.52;;;10.48;;
56653;SDS011;45096;52.302;4.634;2023-09-30T05:42:25;7.30;;;5.75;;
56653;SDS011;45096;52.302;4.634;2023-09-30T05:44:51;4.85;;;4.32;;
56653;SDS011;45096;52.302;4.634;2023-09-30T05:47:16;7.75;;;4.38;;
56653;SDS011;45096;52.302;4.634;2023-09-30T05:49:41;7.38;;;4.90;;
56653;SDS011;45096;52.302;4.634;2023-09-30T05:52:07;4.50;;;3.85;;
56653;SDS011;45096;52.302;4.634;2023-09-30T05:54:34;4.18;;;3.30;;
56653;SDS011;45096;52.302;4.634;2023-09-30T05:56:59;6.65;;;5.13;;
56653;SDS011;45096;52.302;4.634;2023-09-30T05:59:24;5.30;;;4.63;;
56653;SDS011;45096;52.302;4.634;2023-09-30T06:01:50;5.40;;;4.45;;
56653;SDS011;45096;52.302;4.634;2023-09-30T06:04:15;7.10;;;4.60;;
56653;SDS011;45096;52.302;4.634;2023-09-30T06:06:41;5.97;;;4.03;;
56653;SDS011;45096;52.302;4.634;2023-09-30T06:09:06;6.00;;;4.20;;
56653;SDS011;45096;52.302;4.634;2023-09-30T06:11:33;5.10;;;4.05;;
56653;SDS011;45096;52.302;4.634;2023-09-30T06:13:59;6.55;;;4.70;;
56653;SDS011;45096;52.302;4.634;2023-09-30T06:16:24;6.13;;;4.65;;
56653;SDS011;45096;52.302;4.634;2023-09-30T06:18:50;7.03;;;4.97;;
56653;SDS011;45096;52.302;4.634;2023-09-30T06:21:15;5.40;;;4.20;;
56653;SDS011;45096;52.302;4.634;2023-09-30T06:23:40;7.93;;;4.60;;
56653;SDS011;45096;52.302;4.634;2023-09-30T06:26:06;6.88;;;4.03;;
56653;SDS011;45096;52.302;4.634;2023-09-30T06:28:33;4.70;;;3.80;;
56653;SDS011;45096;52.302;4.634;2023-09-30T06:30:58;5.38;;;3.90;;
56653;SDS011;45096;52.302;4.634;2023-09-30T06:33:23;4.95;;;4.25;;
56653;SDS011;45096;52.302;4.634;2023-09-30T06:35:50;6.38;;;4.40;;
56653;SDS011;45096;52.302;4.634;2023-09-30T06:38:15;9.85;;;5.38;;
56653;SDS011;45096;52.302;4.634;2023-09-30T06:40:41;5.68;;;4.40;;
56653;SDS011;45096;52.302;4.634;2023-09-30T06:43:06;7.50;;;5.00;;
56653;SDS011;45096;52.302;4.634;2023-09-30T06:45:33;6.95;;;4.75;;
56653;SDS011;45096;52.302;4.634;2023-09-30T06:47:59;6.03;;;4.60;;
56653;SDS011;45096;52.302;4.634;2023-09-30T06:50:24;5.90;;;4.50;;
56653;SDS011;45096;52.302;4.634;2023-09-30T06:52:49;5.63;;;4.57;;
56653;SDS011;45096;52.302;4.634;2023-09-30T06:55:15;10.23;;;4.28;;
56653;SDS011;45096;52.302;4.634;2023-09-30T06:57:40;7.70;;;4.93;;
56653;SDS011;45096;52.302;4.634;2023-09-30T07:00:06;5.32;;;4.28;;
56653;SDS011;45096;52.302;4.634;2023-09-30T07:02:34;4.68;;;4.28;;
56653;SDS011;45096;52.302;4.634;2023-09-30T07:04:59;6.22;;;3.78;;
56653;SDS011;45096;52.302;4.634;2023-09-30T07:07:24;5.57;;;4.55;;
56653;SDS011;45096;52.302;4.634;2023-09-30T07:09:50;5.72;;;4.75;;
56653;SDS011;45096;52.302;4.634;2023-09-30T07:12:15;11.05;;;6.40;;
56653;SDS011;45096;52.302;4.634;2023-09-30T07:14:41;6.07;;;4.97;;
56653;SDS011;45096;52.302;4.634;2023-09-30T07:17:06;6.68;;;5.03;;
56653;SDS011;45096;52.302;4.634;2023-09-30T07:19:33;7.30;;;4.90;;
56653;SDS011;45096;52.302;4.634;2023-09-30T07:21:58;8.35;;;5.40;;
56653;SDS011;45096;52.302;4.634;2023-09-30T07:24:24;8.60;;;5.45;;
56653;SDS011;45096;52.302;4.634;2023-09-30T07:26:49;8.82;;;5.88;;
56653;SDS011;45096;52.302;4.634;2023-09-30T07:29:15;7.13;;;4.85;;
56653;SDS011;45096;52.302;4.634;2023-09-30T07:31:40;5.60;;;4.75;;
56653;SDS011;45096;52.302;4.634;2023-09-30T07:34:06;7.72;;;4.75;;
56653;SDS011;45096;52.302;4.634;2023-09-30T07:36:32;7.38;;;5.97;;
56653;SDS011;45096;52.302;4.634;2023-09-30T07:38:58;9.00;;;5.47;;
56653;SDS011;45096;52.302;4.634;2023-09-30T07:41:23;6.75;;;5.78;;
56653;SDS011;45096;52.302;4.634;2023-09-30T07:43:49;8.27;;;5.43;;
56653;SDS011;45096;52.302;4.634;2023-09-30T07:46:14;6.68;;;5.93;;
56653;SDS011;45096;52.302;4.634;2023-09-30T07:48:39;5.57;;;5.07;;
56653;SDS011;45096;52.302;4.634;2023-09-30T07:51:05;5.47;;;4.90;;
56653;SDS011;45096;52.302;4.634;2023-09-30T07:53:32;7.82;;;4.95;;
56653;SDS011;45096;52.302;4.634;2023-09-30T07:55:57;11.18;;;6.10;;
56653;SDS011;45096;52.302;4.634;2023-09-30T07:58:22;5.13;;;4.63;;
56653;SDS011;45096;52.302;4.634;2023-09-30T08:00:48;9.18;;;5.32;;
56653;SDS011;45096;52.302;4.634;2023-09-30T08:03:13;8.18;;;5.68;;
56653;SDS011;45096;52.302;4.634;2023-09-30T08:05:39;5.88;;;4.88;;
56653;SDS011;45096;52.302;4.634;2023-09-30T08:08:04;12.40;;;6.00;;
56653;SDS011;45096;52.302;4.634;2023-09-30T08:10:31;4.80;;;4.07;;
56653;SDS011;45096;52.302;4.634;2023-09-30T08:12:57;11.70;;;6.55;;
56653;SDS011;45096;52.302;4.634;2023-09-30T08:15:22;6.35;;;5.35;;
56653;SDS011;45096;52.302;4.634;2023-09-30T08:17:48;7.38;;;5.97;;
56653;SDS011;45096;52.302;4.634;2023-09-30T08:20:13;7.65;;;5.82;;
56653;SDS011;45096;52.302;4.634;2023-09-30T08:22:39;10.18;;;6.95;;
56653;SDS011;45096;52.302;4.634;2023-09-30T08:25:05;10.38;;;5.45;;
56653;SDS011;45096;52.302;4.634;2023-09-30T08:27:32;8.90;;;5.10;;
56653;SDS011;45096;52.302;4.634;2023-09-30T08:29:58;6.40;;;4.93;;
56653;SDS011;45096;52.302;4.634;2023-09-30T08:32:23;8.90;;;6.03;;
56653;SDS011;45096;52.302;4.634;2023-09-30T08:34:48;5.72;;;4.88;;
56653;SDS011;45096;52.302;4.634;2023-09-30T08:37:14;9.30;;;5.25;;
56653;SDS011;45096;52.302;4.634;2023-09-30T08:39:39;8.77;;;5.70;;
56653;SDS011;45096;52.302;4.634;2023-09-30T08:42:05;7.63;;;5.35;;
56653;SDS011;45096;52.302;4.634;2023-09-30T08:44:35;7.75;;;5.93;;
56653;SDS011;45096;52.302;4.634;2023-09-30T08:47:01;6.25;;;5.47;;
56653;SDS011;45096;52.302;4.634;2023-09-30T08:49:27;10.20;;;6.53;;
56653;SDS011;45096;52.302;4.634;2023-09-30T08:51:53;13.02;;;6.07;;
56653;SDS011;45096;52.302;4.634;2023-09-30T08:54:20;10.73;;;6.28;;
56653;SDS011;45096;52.302;4.634;2023-09-30T08:56:47;10.18;;;6.05;;
56653;SDS011;45096;52.302;4.634;2023-09-30T08:59:12;11.18;;;6.35;;
56653;SDS011;45096;52.302;4.634;2023-09-30T09:01:40;8.50;;;5.88;;
56653;SDS011;45096;52.302;4.634;2023-09-30T09:04:05;8.98;;;5.40;;
56653;SDS011;45096;52.302;4.634;2023-09-30T09:06:32;8.68;;;5.65;;
56653;SDS011;45096;52.302;4.634;2023-09-30T09:09:12;10.30;;;5.78;;
56653;SDS011;45096;52.302;4.634;2023-09-30T09:11:38;9.20;;;6.00;;
56653;SDS011;45096;52.302;4.634;2023-09-30T09:14:03;6.50;;;5.85;;
56653;SDS011;45096;52.302;4.634;2023-09-30T09:16:29;9.48;;;6.15;;
56653;SDS011;45096;52.302;4.634;2023-09-30T09:18:55;13.45;;;6.60;;
56653;SDS011;45096;52.302;4.634;2023-09-30T09:21:21;7.18;;;4.63;;
56653;SDS011;45096;52.302;4.634;2023-09-30T09:23:47;8.73;;;6.13;;
56653;SDS011;45096;52.302;4.634;2023-09-30T09:26:22;11.68;;;5.53;;
56653;SDS011;45096;52.302;4.634;2023-09-30T09:28:49;9.85;;;5.38;;
56653;SDS011;45096;52.302;4.634;2023-09-30T09:31:21;8.48;;;5.32;;
56653;SDS011;45096;52.302;4.634;2023-09-30T09:33:46;10.48;;;7.07;;
56653;SDS011;45096;52.302;4.634;2023-09-30T09:36:14;7.88;;;5.70;;
56653;SDS011;45096;52.302;4.634;2023-09-30T09:38:49;11.18;;;7.32;;
56653;SDS011;45096;52.302;4.634;2023-09-30T09:41:15;9.63;;;6.82;;
56653;SDS011;45096;52.302;4.634;2023-09-30T09:43:41;9.70;;;5.97;;
56653;SDS011;45096;52.302;4.634;2023-09-30T09:46:07;9.02;;;5.97;;
56653;SDS011;45096;52.302;4.634;2023-09-30T09:48:33;11.13;;;6.63;;
56653;SDS011;45096;52.302;4.634;2023-09-30T09:50:58;13.07;;;7.40;;
56653;SDS011;45096;52.302;4.634;2023-09-30T09:53:25;9.85;;;6.55;;
56653;SDS011;45096;52.302;4.634;2023-09-30T09:55:51;6.47;;;5.20;;
56653;SDS011;45096;52.302;4.634;2023-09-30T09:58:17;8.52;;;6.07;;
56653;SDS011;45096;52.302;4.634;2023-09-30T10:00:43;7.22;;;5.13;;
56653;SDS011;45096;52.302;4.634;2023-09-30T10:03:09;9.90;;;5.20;;
56653;SDS011;45096;52.302;4.634;2023-09-30T10:05:34;4.97;;;4.32;;
56653;SDS011;45096;52.302;4.634;2023-09-30T10:08:01;8.60;;;5.05;;
56653;SDS011;45096;52.302;4.634;2023-09-30T10:10:30;8.93;;;4.55;;
56653;SDS011;45096;52.302;4.634;2023-09-30T10:12:55;6.03;;;3.80;;
56653;SDS011;45096;52.302;4.634;2023-09-30T10:15:39;6.47;;;3.47;;
56653;SDS011;45096;52.302;4.634;2023-09-30T10:18:05;6.38;;;3.72;;
56653;SDS011;45096;52.302;4.634;2023-09-30T10:20:31;6.82;;;2.97;;
56653;SDS011;45096;52.302;4.634;2023-09-30T10:25:51;5.78;;;2.67;;
56653;SDS011;45096;52.302;4.634;2023-09-30T10:28:33;8.43;;;2.90;;
56653;SDS011;45096;52.302;4.634;2023-09-30T10:31:13;7.78;;;3.17;;
56653;SDS011;45096;52.302;4.634;2023-09-30T10:36:41;4.90;;;2.58;;
56653;SDS011;45096;52.302;4.634;2023-09-30T10:39:10;3.95;;;2.25;;
56653;SDS011;45096;52.302;4.634;2023-09-30T10:41:51;4.60;;;3.20;;
56653;SDS011;45096;52.302;4.634;2023-09-30T10:44:32;5.07;;;2.45;;
56653;SDS011;45096;52.302;4.634;2023-09-30T10:46:59;3.00;;;2.28;;
56653;SDS011;45096;52.302;4.634;2023-09-30T10:49:31;4.55;;;2.03;;
56653;SDS011;45096;52.302;4.634;2023-09-30T10:51:57;7.72;;;2.88;;
56653;SDS011;45096;52.302;4.634;2023-09-30T10:54:23;3.83;;;2.50;;
56653;SDS011;45096;52.302;4.634;2023-09-30T10:56:49;5.57;;;2.50;;
56653;SDS011;45096;52.302;4.634;2023-09-30T10:59:19;4.68;;;1.98;;
56653;SDS011;45096;52.302;4.634;2023-09-30T11:01:45;3.25;;;2.40;;
56653;SDS011;45096;52.302;4.634;2023-09-30T11:04:10;4.15;;;2.60;;
56653;SDS011;45096;52.302;4.634;2023-09-30T11:06:39;4.28;;;2.30;;
56653;SDS011;45096;52.302;4.634;2023-09-30T11:09:05;4.03;;;2.28;;
56653;SDS011;45096;52.302;4.634;2023-09-30T11:11:34;3.28;;;1.85;;
56653;SDS011;45096;52.302;4.634;2023-09-30T11:14:00;6.78;;;3.08;;
56653;SDS011;45096;52.302;4.634;2023-09-30T11:16:26;4.18;;;2.08;;
56653;SDS011;45096;52.302;4.634;2023-09-30T11:18:53;3.08;;;2.00;;
56653;SDS011;45096;52.302;4.634;2023-09-30T11:21:18;3.72;;;2.30;;
56653;SDS011;45096;52.302;4.634;2023-09-30T11:23:44;3.45;;;2.20;;
56653;SDS011;45096;52.302;4.634;2023-09-30T11:26:09;3.95;;;2.38;;
56653;SDS011;45096;52.302;4.634;2023-09-30T11:28:35;5.15;;;2.35;;
56653;SDS011;45096;52.302;4.634;2023-09-30T11:31:01;5.38;;;2.33;;
56653;SDS011;45096;52.302;4.634;2023-09-30T11:33:28;5.18;;;1.77;;
56653;SDS011;45096;52.302;4.634;2023-09-30T11:35:57;6.18;;;2.40;;
56653;SDS011;45096;52.302;4.634;2023-09-30T11:38:24;4.10;;;2.10;;
56653;SDS011;45096;52.302;4.634;2023-09-30T11:40:59;4.68;;;1.88;;
56653;SDS011;45096;52.302;4.634;2023-09-30T11:43:25;6.22;;;2.50;;
56653;SDS011;45096;52.302;4.634;2023-09-30T11:45:51;3.42;;;2.03;;
56653;SDS011;45096;52.302;4.634;2023-09-30T11:48:17;4.25;;;2.78;;
56653;SDS011;45096;52.302;4.634;2023-09-30T11:50:48;4.88;;;2.28;;
56653;SDS011;45096;52.302;4.634;2023-09-30T11:53:16;4.60;;;2.28;;
56653;SDS011;45096;52.302;4.634;2023-09-30T11:55:42;3.42;;;1.98;;
56653;SDS011;45096;52.302;4.634;2023-09-30T11:58:07;2.05;;;1.73;;
56653;SDS011;45096;52.302;4.634;2023-09-30T12:00:32;4.82;;;2.28;;
56653;SDS011;45096;52.302;4.634;2023-09-30T12:02:58;2.45;;;1.83;;
56653;SDS011;45096;52.302;4.634;2023-09-30T12:05:23;4.00;;;2.00;;
56653;SDS011;45096;52.302;4.634;2023-09-30T12:07:50;3.10;;;2.10;;
56653;SDS011;45096;52.302;4.634;2023-09-30T12:10:15;3.35;;;2.13;;
56653;SDS011;45096;52.302;4.634;2023-09-30T12:12:41;4.07;;;2.15;;
56653;SDS011;45096;52.302;4.634;2023-09-30T12:15:07;6.82;;;2.75;;
56653;SDS011;45096;52.302;4.634;2023-09-30T12:17:33;3.28;;;2.88;;
56653;SDS011;45096;52.302;4.634;2023-09-30T12:19:58;2.38;;;2.22;;
56653;SDS011;45096;52.302;4.634;2023-09-30T12:22:23;4.43;;;2.25;;
56653;SDS011;45096;52.302;4.634;2023-09-30T12:24:50;2.95;;;1.80;;
56653;SDS011;45096;52.302;4.634;2023-09-30T12:27:16;5.95;;;2.90;;
56653;SDS011;45096;52.302;4.634;2023-09-30T12:29:41;3.85;;;2.28;;
56653;SDS011;45096;52.302;4.634;2023-09-30T12:32:06;4.50;;;2.20;;
56653;SDS011;45096;52.302;4.634;2023-09-30T12:34:32;2.08;;;1.88;;
56653;SDS011;45096;52.302;4.634;2023-09-30T12:36:57;4.38;;;2.40;;
56653;SDS011;45096;52.302;4.634;2023-09-30T12:39:23;3.00;;;1.90;;
56653;SDS011;45096;52.302;4.634;2023-09-30T12:41:49;4.00;;;2.28;;
56653;SDS011;45096;52.302;4.634;2023-09-30T12:44:15;5.78;;;2.78;;
56653;SDS011;45096;52.302;4.634;2023-09-30T12:46:40;5.95;;;1.95;;
56653;SDS011;45096;52.302;4.634;2023-09-30T12:49:06;3.55;;;2.50;;
56653;SDS011;45096;52.302;4.634;2023-09-30T12:51:32;7.40;;;2.47;;
56653;SDS011;45096;52.302;4.634;2023-09-30T12:53:57;5.97;;;2.55;;
56653;SDS011;45096;52.302;4.634;2023-09-30T12:56:23;3.38;;;2.28;;
56653;SDS011;45096;52.302;4.634;2023-09-30T12:58:50;4.70;;;2.25;;
56653;SDS011;45096;52.302;4.634;2023-09-30T13:01:16;4.55;;;2.08;;
56653;SDS011;45096;52.302;4.634;2023-09-30T13:03:41;4.32;;;2.40;;
56653;SDS011;45096;52.302;4.634;2023-09-30T13:06:07;5.20;;;2.30;;
56653;SDS011;45096;52.302;4.634;2023-09-30T13:08:33;5.53;;;2.75;;
56653;SDS011;45096;52.302;4.634;2023-09-30T13:11:00;3.97;;;2.50;;
56653;SDS011;45096;52.302;4.634;2023-09-30T13:13:25;6.95;;;2.65;;
56653;SDS011;45096;52.302;4.634;2023-09-30T13:15:52;4.10;;;2.65;;
56653;SDS011;45096;52.302;4.634;2023-09-30T13:18:17;5.00;;;2.45;;
56653;SDS011;45096;52.302;4.634;2023-09-30T13:20:43;6.57;;;2.78;;
56653;SDS011;45096;52.302;4.634;2023-09-30T13:23:08;3.63;;;2.53;;
56653;SDS011;45096;52.302;4.634;2023-09-30T13:25:33;6.25;;;2.13;;
56653;SDS011;45096;52.302;4.634;2023-09-30T13:27:59;3.33;;;2.20;;
56653;SDS011;45096;52.302;4.634;2023-09-30T13:30:24;5.20;;;2.90;;
56653;SDS011;45096;52.302;4.634;2023-09-30T13:32:51;7.20;;;2.38;;
56653;SDS011;45096;52.302;4.634;2023-09-30T13:35:17;5.55;;;2.60;;
56653;SDS011;45096;52.302;4.634;2023-09-30T13:37:42;6.38;;;2.60;;
56653;SDS011;45096;52.302;4.634;2023-09-30T13:40:08;6.75;;;3.08;;
56653;SDS011;45096;52.302;4.634;2023-09-30T13:42:34;5.70;;;2.45;;
56653;SDS011;45096;52.302;4.634;2023-09-30T13:44:59;5.68;;;2.50;;
56653;SDS011;45096;52.302;4.634;2023-09-30T13:47:25;4.85;;;2.65;;
56653;SDS011;45096;52.302;4.634;2023-09-30T13:49:52;3.90;;;2.22;;
56653;SDS011;45096;52.302;4.634;2023-09-30T13:52:17;5.75;;;2.53;;
56653;SDS011;45096;52.302;4.634;2023-09-30T13:54:43;4.95;;;2.63;;
56653;SDS011;45096;52.302;4.634;2023-09-30T13:57:08;4.95;;;2.22;;
56653;SDS011;45096;52.302;4.634;2023-09-30T13:59:34;4.78;;;2.25;;
56653;SDS011;45096;52.302;4.634;2023-09-30T14:01:59;4.32;;;2.75;;
56653;SDS011;45096;52.302;4.634;2023-09-30T14:04:25;6.10;;;2.50;;
56653;SDS011;45096;52.302;4.634;2023-09-30T14:06:51;6.70;;;2.50;;
56653;SDS011;45096;52.302;4.634;2023-09-30T14:09:17;7.10;;;2.47;;
56653;SDS011;45096;52.302;4.634;2023-09-30T14:11:42;5.65;;;2.67;;
56653;SDS011;45096;52.302;4.634;2023-09-30T14:14:08;7.78;;;2.25;;
56653;SDS011;45096;52.302;4.634;2023-09-30T14:16:33;8.77;;;2.40;;
56653;SDS011;45096;52.302;4.634;2023-09-30T14:18:59;4.35;;;2.53;;
56653;SDS011;45096;52.302;4.634;2023-09-30T14:21:24;6.78;;;2.33;;
56653;SDS011;45096;52.302;4.634;2023-09-30T14:23:51;6.05;;;2.70;;
56653;SDS011;45096;52.302;4.634;2023-09-30T14:26:16;3.50;;;2.15;;
56653;SDS011;45096;52.302;4.634;2023-09-30T14:28:41;4.90;;;2.80;;
56653;SDS011;45096;52.302;4.634;2023-09-30T14:31:07;5.28;;;2.40;;
56653;SDS011;45096;52.302;4.634;2023-09-30T14:33:32;4.40;;;2.55;;
56653;SDS011;45096;52.302;4.634;2023-09-30T14:35:58;5.28;;;2.17;;
56653;SDS011;45096;52.302;4.634;2023-09-30T14:38:24;7.30;;;3.20;;
56653;SDS011;45096;52.302;4.634;2023-09-30T14:40:51;4.80;;;2.50;;
56653;SDS011;45096;52.302;4.634;2023-09-30T14:43:17;9.63;;;3.25;;
56653;SDS011;45096;52.302;4.634;2023-09-30T14:45:42;5.80;;;2.33;;